Time;durP1;ratioP1;P1;durP2;ratioP2;P2;SDS_P1;SDS_P2;PMS_P1;PMS_P2;Temp;Humidity;BMP_temperature;BMP_pressure;BME280_temperature;BME280_humidity;BME280_pressure;Samples;Min_cycle;Max_cycle;Signal;HPM_P1;HPM_P2
2023/08/12 00:01:47;;;;;;;57.80;3.10;;;;;;;;;;5054372;28;20444;-69
2023/08/12 00:04:16;;;;;;;57.37;2.77;;;;;;;;;;5054451;28;20502;-69
2023/08/12 00:06:43;;;;;;;60.80;3.50;;;;;;;;;;5054390;28;20494;-69
2023/08/12 00:09:11;;;;;;;59.00;2.80;;;;;;;;;;5054443;28;20444;-69
2023/08/12 00:11:38;;;;;;;57.17;2.40;;;;;;;;;;5053953;28;20479;-69
2023/08/12 00:14:05;;;;;;;57.83;2.40;;;;;;;;;;5054383;28;20460;-69
2023/08/12 00:16:33;;;;;;;57.10;2.37;;;;;;;;;;5054309;28;20801;-69
2023/08/12 00:19:00;;;;;;;57.67;3.17;;;;;;;;;;5054533;28;20494;-69
2023/08/12 00:21:29;;;;;;;56.30;2.57;;;;;;;;;;5054596;28;20444;-69
2023/08/12 00:23:56;;;;;;;56.90;2.70;;;;;;;;;;5053717;28;20472;-69
2023/08/12 00:26:23;;;;;;;58.80;2.73;;;;;;;;;;5054068;28;20484;-69
2023/08/12 00:28:51;;;;;;;57.80;3.00;;;;;;;;;;5054116;28;20824;-69
2023/08/12 00:31:18;;;;;;;57.20;2.80;;;;;;;;;;5053818;28;20444;-69
2023/08/12 00:33:45;;;;;;;56.83;2.60;;;;;;;;;;5053684;28;20476;-69
2023/08/12 00:36:12;;;;;;;57.20;2.70;;;;;;;;;;5053706;28;20442;-69
2023/08/12 00:38:41;;;;;;;58.37;3.30;;;;;;;;;;5053552;28;20452;-69
2023/08/12 00:41:08;;;;;;;61.40;4.97;;;;;;;;;;5053865;28;20452;-69
2023/08/12 00:43:35;;;;;;;58.77;4.60;;;;;;;;;;5053419;28;20468;-69
2023/08/12 00:46:02;;;;;;;57.27;3.07;;;;;;;;;;5053459;28;20487;-69
2023/08/12 00:48:29;;;;;;;58.53;3.70;;;;;;;;;;5053618;28;20452;-70
2023/08/12 00:50:56;;;;;;;57.77;3.03;;;;;;;;;;5053441;28;20531;-69
2023/08/12 00:53:23;;;;;;;56.97;2.50;;;;;;;;;;5053124;28;20466;-69
2023/08/12 00:55:52;;;;;;;57.17;2.90;;;;;;;;;;5053499;28;20441;-69
2023/08/12 00:58:19;;;;;;;57.40;3.30;;;;;;;;;;5053560;28;20440;-69
2023/08/12 01:00:46;;;;;;;56.90;2.93;;;;;;;;;;5053299;28;20459;-69
2023/08/12 01:03:13;;;;;;;57.10;2.90;;;;;;;;;;5053040;28;20487;-69
2023/08/12 01:05:40;;;;;;;57.47;4.27;;;;;;;;;;5053067;28;20484;-69
2023/08/12 01:08:07;;;;;;;57.90;3.30;;;;;;;;;;5053379;28;20444;-69
2023/08/12 01:10:36;;;;;;;56.73;2.40;;;;;;;;;;5053293;28;20447;-69
2023/08/12 01:13:10;;;;;;;58.97;3.80;;;;;;;;;;5052899;28;20464;-69
2023/08/12 01:15:37;;;;;;;57.13;3.13;;;;;;;;;;5053025;28;20544;-69
2023/08/12 01:18:05;;;;;;;57.00;3.53;;;;;;;;;;5052931;28;20452;-69
2023/08/12 01:20:32;;;;;;;57.27;2.87;;;;;;;;;;5053178;28;20441;-69
2023/08/12 01:23:03;;;;;;;56.87;2.57;;;;;;;;;;5052565;28;20460;-69
2023/08/12 01:25:31;;;;;;;56.80;2.90;;;;;;;;;;5052853;28;20488;-69
2023/08/12 01:27:58;;;;;;;57.30;2.70;;;;;;;;;;5052888;28;20448;-69
2023/08/12 01:30:26;;;;;;;57.80;3.00;;;;;;;;;;5052784;28;20812;-69
2023/08/12 01:32:55;;;;;;;56.90;2.70;;;;;;;;;;5052301;28;20464;-69
2023/08/12 01:35:25;;;;;;;57.07;2.67;;;;;;;;;;5052619;28;20905;-69
2023/08/12 01:37:53;;;;;;;57.80;3.77;;;;;;;;;;5052587;28;20456;-69
2023/08/12 01:40:21;;;;;;;56.60;2.47;;;;;;;;;;5053036;28;20451;-69
2023/08/12 01:42:50;;;;;;;57.50;2.83;;;;;;;;;;5051782;28;20476;-69
2023/08/12 01:45:17;;;;;;;56.70;2.30;;;;;;;;;;5052254;28;20506;-69
2023/08/12 01:47:44;;;;;;;56.97;2.53;;;;;;;;;;5050892;28;20448;-70
2023/08/12 01:50:12;;;;;;;56.80;2.70;;;;;;;;;;5052592;28;20441;-69
2023/08/12 01:52:39;;;;;;;57.00;2.83;;;;;;;;;;5052033;28;20726;-69
2023/08/12 01:55:06;;;;;;;56.97;3.07;;;;;;;;;;5052236;28;20443;-69
2023/08/12 01:57:33;;;;;;;56.87;2.63;;;;;;;;;;5052145;28;20444;-69
2023/08/12 02:00:03;;;;;;;61.93;4.97;;;;;;;;;;5052198;28;20499;-69
2023/08/12 02:02:30;;;;;;;56.87;2.60;;;;;;;;;;5051887;28;20546;-69
2023/08/12 02:04:57;;;;;;;57.40;2.60;;;;;;;;;;5052199;28;20859;-69
2023/08/12 02:07:25;;;;;;;57.07;2.83;;;;;;;;;;5051940;28;20940;-69
2023/08/12 02:09:52;;;;;;;56.87;2.50;;;;;;;;;;5052046;28;20456;-69
2023/08/12 02:12:19;;;;;;;56.60;2.63;;;;;;;;;;5051676;28;20447;-69
2023/08/12 02:14:46;;;;;;;61.17;3.20;;;;;;;;;;5052088;28;20461;-69
2023/08/12 02:17:14;;;;;;;56.77;2.93;;;;;;;;;;5051966;28;20455;-69
2023/08/12 02:19:41;;;;;;;57.20;3.70;;;;;;;;;;5052299;28;20828;-69
2023/08/12 02:22:10;;;;;;;57.10;2.60;;;;;;;;;;5051605;28;20475;-69
2023/08/12 02:24:37;;;;;;;56.70;2.40;;;;;;;;;;5051574;28;20469;-69
2023/08/12 02:27:04;;;;;;;56.37;2.40;;;;;;;;;;5051524;28;20461;-69
2023/08/12 02:29:31;;;;;;;56.90;2.50;;;;;;;;;;5051907;28;20455;-69
2023/08/12 02:31:58;;;;;;;56.97;2.40;;;;;;;;;;5051528;28;20450;-69
2023/08/12 02:34:27;;;;;;;56.63;3.00;;;;;;;;;;5051664;28;20464;-69
2023/08/12 02:36:54;;;;;;;56.60;2.37;;;;;;;;;;5051360;28;20442;-69
2023/08/12 02:39:21;;;;;;;56.80;2.60;;;;;;;;;;5051472;28;20441;-69
2023/08/12 02:41:48;;;;;;;56.77;2.97;;;;;;;;;;5051465;28;20455;-69
2023/08/12 02:44:15;;;;;;;56.80;2.83;;;;;;;;;;5051561;28;20464;-69
2023/08/12 02:46:42;;;;;;;57.77;3.43;;;;;;;;;;5051228;28;20487;-69
2023/08/12 02:49:11;;;;;;;56.77;2.57;;;;;;;;;;5051299;28;20950;-69
2023/08/12 02:51:39;;;;;;;56.87;3.00;;;;;;;;;;5051144;28;20455;-69
2023/08/12 02:54:06;;;;;;;56.90;2.73;;;;;;;;;;5050927;28;20465;-69
2023/08/12 02:56:33;;;;;;;56.33;2.60;;;;;;;;;;5050661;28;21019;-69
2023/08/12 02:59:00;;;;;;;56.53;2.70;;;;;;;;;;5051419;28;20441;-69
2023/08/12 03:01:28;;;;;;;56.80;2.60;;;;;;;;;;5051263;28;20451;-69
2023/08/12 03:03:55;;;;;;;56.60;2.80;;;;;;;;;;5050868;28;20464;-69
2023/08/12 03:06:22;;;;;;;58.70;3.80;;;;;;;;;;5050834;28;20514;-70
2023/08/12 03:08:50;;;;;;;56.57;3.50;;;;;;;;;;5051318;28;20448;-69
2023/08/12 03:11:18;;;;;;;56.70;3.60;;;;;;;;;;5051193;28;20444;-69
2023/08/12 03:13:45;;;;;;;56.90;2.70;;;;;;;;;;5050720;28;20468;-69
2023/08/12 03:16:14;;;;;;;57.47;2.83;;;;;;;;;;5051025;28;20440;-69
2023/08/12 03:18:41;;;;;;;57.10;3.33;;;;;;;;;;5051069;28;20490;-69
2023/08/12 03:21:08;;;;;;;56.97;2.83;;;;;;;;;;5050886;28;20455;-69
2023/08/12 03:23:35;;;;;;;56.57;2.40;;;;;;;;;;5050791;28;20464;-69
2023/08/12 03:26:04;;;;;;;56.80;3.00;;;;;;;;;;5050776;28;20487;-69
2023/08/12 03:28:31;;;;;;;58.70;3.53;;;;;;;;;;5051091;28;20502;-69
2023/08/12 03:30:58;;;;;;;56.70;2.70;;;;;;;;;;5050816;28;20963;-69
2023/08/12 03:33:25;;;;;;;57.57;3.33;;;;;;;;;;5050983;28;20464;-69
2023/08/12 03:35:52;;;;;;;56.90;3.00;;;;;;;;;;5050743;28;20476;-69
2023/08/12 03:38:19;;;;;;;56.90;2.50;;;;;;;;;;5050718;28;20456;-69
2023/08/12 03:40:46;;;;;;;57.60;3.23;;;;;;;;;;5050811;28;20451;-69
2023/08/12 03:43:15;;;;;;;58.10;2.70;;;;;;;;;;5050626;28;20487;-69
2023/08/12 03:45:42;;;;;;;57.47;2.97;;;;;;;;;;5050613;28;20488;-69
2023/08/12 03:48:09;;;;;;;57.20;2.60;;;;;;;;;;5050625;28;20444;-69
2023/08/12 03:50:36;;;;;;;56.67;2.20;;;;;;;;;;5050867;28;20820;-70
2023/08/12 03:53:04;;;;;;;56.37;2.20;;;;;;;;;;5050411;28;20464;-70
2023/08/12 03:55:32;;;;;;;56.70;2.77;;;;;;;;;;5050616;28;20448;-69
2023/08/12 03:57:59;;;;;;;56.50;2.50;;;;;;;;;;5050721;28;20447;-69
2023/08/12 04:00:28;;;;;;;57.57;3.23;;;;;;;;;;5050628;28;20452;-70
2023/08/12 04:02:55;;;;;;;57.03;2.60;;;;;;;;;;5050301;28;20472;-70
2023/08/12 04:05:22;;;;;;;56.70;2.67;;;;;;;;;;5050579;28;20444;-70
2023/08/12 04:07:49;;;;;;;57.33;3.23;;;;;;;;;;5054213;28;20439;-70
2023/08/12 04:10:16;;;;;;;58.10;3.87;;;;;;;;;;5054419;28;20447;-69
2023/08/12 04:12:43;;;;;;;57.30;2.83;;;;;;;;;;5054052;28;20440;-70
2023/08/12 04:15:11;;;;;;;57.07;2.73;;;;;;;;;;5054138;28;20448;-69
2023/08/12 04:17:40;;;;;;;57.07;2.80;;;;;;;;;;5054318;28;20440;-69
2023/08/12 04:20:08;;;;;;;58.50;3.30;;;;;;;;;;5054061;28;20444;-69
2023/08/12 04:22:35;;;;;;;56.53;2.47;;;;;;;;;;5053903;28;20452;-69
2023/08/12 04:25:03;;;;;;;56.57;2.33;;;;;;;;;;5054132;28;20440;-69
2023/08/12 04:27:30;;;;;;;57.30;2.80;;;;;;;;;;5053773;28;21031;-69
2023/08/12 04:29:57;;;;;;;56.87;2.67;;;;;;;;;;5054144;28;20527;-69
2023/08/12 04:32:24;;;;;;;58.47;2.80;;;;;;;;;;5053628;28;21011;-69
2023/08/12 04:34:53;;;;;;;57.73;2.97;;;;;;;;;;5053886;28;20470;-69
2023/08/12 04:37:20;;;;;;;57.00;2.57;;;;;;;;;;5053623;28;20452;-69
2023/08/12 04:39:47;;;;;;;56.90;2.50;;;;;;;;;;5054209;28;20951;-69
2023/08/12 04:42:14;;;;;;;56.67;2.50;;;;;;;;;;5053457;28;20881;-70
2023/08/12 04:44:41;;;;;;;57.00;2.40;;;;;;;;;;5053831;28;20471;-70
2023/08/12 04:47:09;;;;;;;57.20;2.77;;;;;;;;;;5053659;28;20484;-69
2023/08/12 04:49:36;;;;;;;56.63;3.03;;;;;;;;;;5053499;28;20452;-69
2023/08/12 04:52:06;;;;;;;56.90;2.70;;;;;;;;;;5053278;28;20448;-69
2023/08/12 04:54:33;;;;;;;56.87;3.00;;;;;;;;;;5053429;28;20555;-69
2023/08/12 04:57:00;;;;;;;57.37;2.80;;;;;;;;;;5053282;28;20445;-70
2023/08/12 04:59:27;;;;;;;56.57;2.40;;;;;;;;;;5053535;28;20475;-69
2023/08/12 05:01:54;;;;;;;56.80;2.37;;;;;;;;;;5053314;28;20451;-69
2023/08/12 05:04:21;;;;;;;56.80;2.67;;;;;;;;;;5053277;28;20468;-69
2023/08/12 05:06:48;;;;;;;56.70;2.73;;;;;;;;;;5053202;28;20487;-69
2023/08/12 05:09:17;;;;;;;57.40;2.63;;;;;;;;;;5053171;28;20441;-69
2023/08/12 05:11:44;;;;;;;56.80;2.70;;;;;;;;;;5053129;28;20444;-69
2023/08/12 05:14:11;;;;;;;56.97;2.57;;;;;;;;;;5053204;28;20874;-70
2023/08/12 05:16:38;;;;;;;56.73;2.70;;;;;;;;;;5053146;28;20813;-69
2023/08/12 05:19:05;;;;;;;56.50;3.10;;;;;;;;;;5052161;28;20440;-69
2023/08/12 05:21:32;;;;;;;56.67;3.00;;;;;;;;;;5052960;28;20448;-70
2023/08/12 05:24:00;;;;;;;56.63;2.83;;;;;;;;;;5052586;28;20460;-69
2023/08/12 05:26:28;;;;;;;56.67;2.40;;;;;;;;;;5053280;28;20490;-69
2023/08/12 05:28:55;;;;;;;56.80;2.80;;;;;;;;;;5053062;28;20523;-70
2023/08/12 05:31:22;;;;;;;57.97;3.40;;;;;;;;;;5052762;28;20449;-70
2023/08/12 05:33:49;;;;;;;56.27;2.40;;;;;;;;;;5052375;28;20464;-70
2023/08/12 05:36:16;;;;;;;56.07;2.27;;;;;;;;;;5052535;28;20447;-69
2023/08/12 05:38:43;;;;;;;57.40;2.70;;;;;;;;;;5052594;28;20547;-69
2023/08/12 05:41:10;;;;;;;58.00;3.67;;;;;;;;;;5052832;28;20440;-70
2023/08/12 05:43:39;;;;;;;56.43;2.50;;;;;;;;;;5052390;28;20479;-70
2023/08/12 05:46:06;;;;;;;56.50;2.53;;;;;;;;;;5052504;28;20484;-70
2023/08/12 05:48:33;;;;;;;57.00;3.07;;;;;;;;;;5052412;28;20444;-70
2023/08/12 05:51:00;;;;;;;56.20;2.37;;;;;;;;;;5052319;28;20455;-69
2023/08/12 05:53:27;;;;;;;57.50;3.43;;;;;;;;;;5052047;28;20463;-70
2023/08/12 05:55:54;;;;;;;56.70;2.57;;;;;;;;;;5052495;28;20449;-70
2023/08/12 05:58:21;;;;;;;57.10;2.60;;;;;;;;;;5052237;28;20932;-70
2023/08/12 06:00:50;;;;;;;56.27;2.37;;;;;;;;;;5052592;28;20460;-70
2023/08/12 06:03:17;;;;;;;56.90;2.83;;;;;;;;;;5051879;28;20464;-70
2023/08/12 06:05:46;;;;;;;56.60;2.50;;;;;;;;;;5052059;28;20448;-70
2023/08/12 06:08:14;;;;;;;56.77;2.70;;;;;;;;;;5052262;28;20452;-70
2023/08/12 06:10:41;;;;;;;56.90;3.30;;;;;;;;;;5052224;28;20440;-70
2023/08/12 06:13:08;;;;;;;56.40;2.57;;;;;;;;;;5051771;28;20464;-70
2023/08/12 06:15:35;;;;;;;56.80;2.20;;;;;;;;;;5051827;28;21040;-70
2023/08/12 06:18:04;;;;;;;56.23;2.70;;;;;;;;;;5051774;28;20440;-70
2023/08/12 06:20:31;;;;;;;56.60;2.33;;;;;;;;;;5052100;28;20476;-70
2023/08/12 06:22:58;;;;;;;56.77;2.80;;;;;;;;;;5051863;28;20467;-70
2023/08/12 06:25:25;;;;;;;56.80;2.60;;;;;;;;;;5051855;28;20440;-69
2023/08/12 06:27:52;;;;;;;56.77;3.23;;;;;;;;;;5051818;28;20491;-70
2023/08/12 06:30:19;;;;;;;56.50;2.20;;;;;;;;;;5051549;28;20458;-70
2023/08/12 06:32:46;;;;;;;56.57;2.50;;;;;;;;;;5051201;28;20445;-70
2023/08/12 06:35:15;;;;;;;57.17;3.20;;;;;;;;;;5051822;28;20936;-70
2023/08/12 06:37:42;;;;;;;56.67;2.83;;;;;;;;;;5051576;28;20464;-70
2023/08/12 06:40:09;;;;;;;56.13;2.37;;;;;;;;;;5051604;28;20452;-70
2023/08/12 06:42:36;;;;;;;56.80;2.77;;;;;;;;;;5051231;28;20444;-70
2023/08/12 06:45:04;;;;;;;56.17;2.40;;;;;;;;;;5051539;28;20467;-70
2023/08/12 06:47:31;;;;;;;56.60;2.40;;;;;;;;;;5051519;28;20483;-70
2023/08/12 06:49:58;;;;;;;56.80;2.73;;;;;;;;;;5051452;28;20444;-70
2023/08/12 06:52:27;;;;;;;56.80;2.77;;;;;;;;;;5051224;28;20440;-70
2023/08/12 06:54:54;;;;;;;57.10;3.17;;;;;;;;;;5051313;28;20445;-70
2023/08/12 06:57:21;;;;;;;56.93;2.73;;;;;;;;;;5051201;28;20937;-70
2023/08/12 06:59:48;;;;;;;57.00;3.00;;;;;;;;;;5051153;28;20444;-70
2023/08/12 07:02:15;;;;;;;58.70;3.13;;;;;;;;;;5051082;28;20452;-70
2023/08/12 07:04:42;;;;;;;56.17;2.27;;;;;;;;;;5051272;28;20464;-69
2023/08/12 07:07:09;;;;;;;56.67;2.47;;;;;;;;;;5051109;28;20491;-70
2023/08/12 07:09:38;;;;;;;57.23;2.93;;;;;;;;;;5051192;28;20440;-70
2023/08/12 07:12:05;;;;;;;56.60;2.50;;;;;;;;;;5050790;28;20448;-67
2023/08/12 07:14:32;;;;;;;58.10;2.57;;;;;;;;;;5050897;28;20472;-70
2023/08/12 07:16:59;;;;;;;58.60;2.80;;;;;;;;;;5051119;28;20444;-68
2023/08/12 07:19:26;;;;;;;56.60;2.60;;;;;;;;;;5051169;28;20448;-68
2023/08/12 07:21:53;;;;;;;56.27;2.40;;;;;;;;;;5050723;28;20445;-68
2023/08/12 07:24:20;;;;;;;57.10;3.43;;;;;;;;;;5050922;28;20474;-68
2023/08/12 07:26:49;;;;;;;57.90;3.40;;;;;;;;;;5050724;28;20486;-67
2023/08/12 07:29:16;;;;;;;56.70;2.50;;;;;;;;;;5051110;28;20448;-68
2023/08/12 07:31:43;;;;;;;56.97;2.30;;;;;;;;;;5050794;28;20436;-67
2023/08/12 07:34:12;;;;;;;56.90;2.30;;;;;;;;;;5050958;28;20507;-68
2023/08/12 07:36:40;;;;;;;57.63;3.23;;;;;;;;;;5050893;28;20441;-68
2023/08/12 07:39:07;;;;;;;56.67;2.60;;;;;;;;;;5050748;28;20460;-68
2023/08/12 07:41:34;;;;;;;56.60;2.70;;;;;;;;;;5052426;28;20447;-68
2023/08/12 07:44:02;;;;;;;56.13;2.07;;;;;;;;;;5054914;28;20463;-68
2023/08/12 07:46:30;;;;;;;56.60;2.40;;;;;;;;;;5054571;28;20444;-68
2023/08/12 07:48:57;;;;;;;56.90;2.60;;;;;;;;;;5054865;28;20478;-68
2023/08/12 07:51:24;;;;;;;58.50;3.27;;;;;;;;;;5054710;28;20840;-68
2023/08/12 07:53:51;;;;;;;56.70;2.53;;;;;;;;;;5054268;28;20470;-68
2023/08/12 07:56:18;;;;;;;55.83;2.40;;;;;;;;;;5054542;28;20971;-68
2023/08/12 07:58:45;;;;;;;56.23;2.40;;;;;;;;;;5054794;28;20436;-68
2023/08/12 08:01:14;;;;;;;57.00;2.43;;;;;;;;;;5054618;28;20451;-68
2023/08/12 08:03:41;;;;;;;56.07;2.77;;;;;;;;;;5054263;28;21010;-68
2023/08/12 08:06:08;;;;;;;56.63;2.70;;;;;;;;;;5054408;28;20440;-68
2023/08/12 08:08:35;;;;;;;56.43;2.40;;;;;;;;;;5054173;28;20492;-68
2023/08/12 08:11:02;;;;;;;56.53;2.63;;;;;;;;;;5054522;28;20458;-68
2023/08/12 08:13:29;;;;;;;57.40;2.67;;;;;;;;;;5053896;28;20464;-68
2023/08/12 08:15:56;;;;;;;55.80;2.20;;;;;;;;;;5054253;28;20452;-68
2023/08/12 08:18:25;;;;;;;56.23;2.17;;;;;;;;;;5054153;28;20816;-70
2023/08/12 08:20:52;;;;;;;56.47;2.13;;;;;;;;;;5054058;28;20543;-70
2023/08/12 08:23:19;;;;;;;55.73;1.80;;;;;;;;;;5054352;28;20558;-70
2023/08/12 08:25:46;;;;;;;57.47;3.10;;;;;;;;;;5054201;28;20451;-70
2023/08/12 08:28:13;;;;;;;56.53;2.57;;;;;;;;;;5054046;28;20916;-70
2023/08/12 08:30:40;;;;;;;56.63;2.40;;;;;;;;;;5054114;28;20448;-70
2023/08/12 08:33:08;;;;;;;57.60;3.40;;;;;;;;;;5053616;28;20460;-70
2023/08/12 08:35:36;;;;;;;56.80;2.50;;;;;;;;;;5053759;28;20448;-70
2023/08/12 08:38:03;;;;;;;57.63;3.30;;;;;;;;;;5053947;28;20456;-70
2023/08/12 08:40:30;;;;;;;56.47;2.40;;;;;;;;;;5053977;28;20451;-70
2023/08/12 08:42:59;;;;;;;56.70;2.20;;;;;;;;;;5053557;28;20472;-70
2023/08/12 08:45:27;;;;;;;56.40;2.17;;;;;;;;;;5053683;28;20447;-70
2023/08/12 08:47:54;;;;;;;57.17;2.30;;;;;;;;;;5053558;28;21019;-70
2023/08/12 08:50:22;;;;;;;57.30;3.00;;;;;;;;;;5053519;28;20455;-70
2023/08/12 08:52:51;;;;;;;56.90;2.30;;;;;;;;;;5052115;28;20465;-70
2023/08/12 08:55:18;;;;;;;56.70;2.57;;;;;;;;;;5053575;28;20455;-70
2023/08/12 08:57:45;;;;;;;55.97;2.03;;;;;;;;;;5053397;28;20440;-68
2023/08/12 09:00:14;;;;;;;56.40;2.30;;;;;;;;;;5053496;28;20444;-68
2023/08/12 09:02:42;;;;;;;57.17;2.70;;;;;;;;;;5052890;28;20444;-68
2023/08/12 09:05:09;;;;;;;56.70;2.77;;;;;;;;;;5053553;28;20445;-68
2023/08/12 09:07:36;;;;;;;55.87;2.10;;;;;;;;;;5053268;28;20479;-68
2023/08/12 09:10:05;;;;;;;58.07;2.70;;;;;;;;;;5053395;28;20472;-68
2023/08/12 09:12:33;;;;;;;56.30;2.20;;;;;;;;;;5052893;28;20467;-68
2023/08/12 09:15:00;;;;;;;58.30;2.90;;;;;;;;;;5053157;28;20444;-68
2023/08/12 09:17:27;;;;;;;56.40;2.37;;;;;;;;;;5053498;28;20436;-68
2023/08/12 09:19:54;;;;;;;57.47;2.80;;;;;;;;;;5053500;28;20447;-68
2023/08/12 09:22:21;;;;;;;56.30;2.07;;;;;;;;;;5052898;28;20451;-68
2023/08/12 09:24:51;;;;;;;56.20;2.00;;;;;;;;;;5052968;28;20472;-68
2023/08/12 09:27:20;;;;;;;58.10;2.97;;;;;;;;;;5052792;28;20840;-68
2023/08/12 09:29:47;;;;;;;56.40;2.50;;;;;;;;;;5052776;28;20518;-68
2023/08/12 09:32:15;;;;;;;56.47;2.50;;;;;;;;;;5052759;28;20444;-69
2023/08/12 09:34:48;;;;;;;65.67;3.20;;;;;;;;;;5052712;28;20468;-69
2023/08/12 09:37:15;;;;;;;56.50;2.30;;;;;;;;;;5052640;28;20496;-69
2023/08/12 09:39:42;;;;;;;56.37;2.13;;;;;;;;;;5052756;28;20444;-68
2023/08/12 09:42:10;;;;;;;57.97;3.20;;;;;;;;;;5052287;28;20446;-69
2023/08/12 09:44:38;;;;;;;56.87;2.90;;;;;;;;;;5052446;28;20469;-69
2023/08/12 09:47:08;;;;;;;56.67;2.37;;;;;;;;;;5052487;28;20448;-69
2023/08/12 09:49:35;;;;;;;56.40;1.90;;;;;;;;;;5052596;28;20436;-69
2023/08/12 09:52:03;;;;;;;56.70;2.47;;;;;;;;;;5052286;28;20441;-69
2023/08/12 09:54:32;;;;;;;56.50;2.40;;;;;;;;;;5052407;28;20491;-69
2023/08/12 09:57:00;;;;;;;57.10;2.03;;;;;;;;;;5052656;28;20866;-69
2023/08/12 09:59:31;;;;;;;56.67;2.13;;;;;;;;;;5052468;28;20440;-69
2023/08/12 10:02:03;;;;;;;57.10;3.20;;;;;;;;;;5052223;28;20502;-69
2023/08/12 10:04:34;;;;;;;56.00;2.30;;;;;;;;;;5051796;28;20972;-69
2023/08/12 10:07:04;;;;;;;57.27;3.10;;;;;;;;;;5052614;28;20444;-70
2023/08/12 10:09:31;;;;;;;56.03;2.20;;;;;;;;;;5052358;28;20450;-69
2023/08/12 10:11:58;;;;;;;56.90;2.70;;;;;;;;;;5051809;28;20493;-69
2023/08/12 10:14:26;;;;;;;56.57;2.33;;;;;;;;;;5052127;28;20522;-69
2023/08/12 10:16:53;;;;;;;55.97;2.20;;;;;;;;;;5052000;28;20440;-69
2023/08/12 10:19:22;;;;;;;56.50;2.20;;;;;;;;;;5052044;28;20808;-69
2023/08/12 10:21:51;;;;;;;56.00;2.07;;;;;;;;;;5051573;28;20448;-69
2023/08/12 10:24:18;;;;;;;57.00;2.93;;;;;;;;;;5051947;28;20452;-69
2023/08/12 10:26:46;;;;;;;56.40;2.20;;;;;;;;;;5051894;28;20830;-69
2023/08/12 10:29:13;;;;;;;57.30;2.90;;;;;;;;;;5051943;28;20506;-69
2023/08/12 10:31:44;;;;;;;56.13;2.03;;;;;;;;;;5051627;28;20479;-69
2023/08/12 10:34:19;;;;;;;56.10;1.90;;;;;;;;;;5051483;28;20506;-69
2023/08/12 10:36:47;;;;;;;56.87;2.30;;;;;;;;;;5051767;28;20459;-69
2023/08/12 10:39:15;;;;;;;56.00;1.83;;;;;;;;;;5051537;28;20945;-69
2023/08/12 10:41:52;;;;;;;55.90;1.80;;;;;;;;;;5051363;28;20547;-69
2023/08/12 10:44:21;;;;;;;56.47;2.20;;;;;;;;;;5051439;28;20464;-69
2023/08/12 10:46:51;;;;;;;55.97;2.30;;;;;;;;;;5051443;28;20809;-69
2023/08/12 10:49:20;;;;;;;56.83;2.87;;;;;;;;;;5051661;28;20780;-69
2023/08/12 10:51:49;;;;;;;55.80;1.80;;;;;;;;;;5051190;28;20860;-69
2023/08/12 10:54:21;;;;;;;56.60;2.23;;;;;;;;;;5051324;28;20464;-70
2023/08/12 10:57:11;;;;;;;56.20;2.03;;;;;;;;;;5051249;28;20440;-69
2023/08/12 10:59:51;;;;;;;55.70;1.80;;;;;;;;;;5047118;28;20521;-69
2023/08/12 11:02:18;;;;;;;56.07;2.47;;;;;;;;;;5051100;28;20472;-70
2023/08/12 11:04:45;;;;;;;56.10;2.17;;;;;;;;;;5051314;28;20494;-69
2023/08/12 11:07:21;;;;;;;56.67;2.10;;;;;;;;;;5051208;28;20436;-69
2023/08/12 11:09:52;;;;;;;55.97;2.30;;;;;;;;;;5051048;28;20814;-69
2023/08/12 11:12:20;;;;;;;57.10;2.70;;;;;;;;;;5051320;28;20436;-69
2023/08/12 11:14:50;;;;;;;55.80;2.00;;;;;;;;;;5051267;28;20466;-69
2023/08/12 11:17:17;;;;;;;56.10;2.30;;;;;;;;;;5050398;28;20443;-69
2023/08/12 11:19:44;;;;;;;55.57;1.67;;;;;;;;;;5051161;28;20446;-69
2023/08/12 11:22:12;;;;;;;63.20;2.47;;;;;;;;;;5050761;28;20436;-70
2023/08/12 11:24:42;;;;;;;55.50;1.90;;;;;;;;;;5051192;28;20467;-69
2023/08/12 11:27:11;;;;;;;55.70;1.80;;;;;;;;;;5051101;28;20450;-70
2023/08/12 11:29:39;;;;;;;55.47;2.00;;;;;;;;;;5050987;28;20526;-70
2023/08/12 11:32:07;;;;;;;55.50;2.10;;;;;;;;;;5050746;28;20456;-70
2023/08/12 11:34:34;;;;;;;55.10;2.27;;;;;;;;;;5050910;28;20464;-70
2023/08/12 11:37:01;;;;;;;56.40;2.90;;;;;;;;;;5050938;28;20448;-69
2023/08/12 11:39:30;;;;;;;55.70;2.33;;;;;;;;;;5051019;28;20440;-69
2023/08/12 11:41:58;;;;;;;55.97;2.27;;;;;;;;;;5050765;28;20451;-70
2023/08/12 11:44:25;;;;;;;55.33;1.90;;;;;;;;;;5050876;28;20559;-70
2023/08/12 11:46:52;;;;;;;56.20;2.40;;;;;;;;;;5050774;28;20945;-70
2023/08/12 11:49:19;;;;;;;55.57;2.40;;;;;;;;;;5050639;28;20490;-70
2023/08/12 11:51:48;;;;;;;55.27;1.93;;;;;;;;;;5050764;28;20444;-70
2023/08/12 11:54:16;;;;;;;55.40;2.50;;;;;;;;;;5050865;28;20902;-70
2023/08/12 11:56:43;;;;;;;55.33;1.97;;;;;;;;;;5050790;28;20444;-70
2023/08/12 11:59:12;;;;;;;55.90;2.10;;;;;;;;;;5050633;28;20506;-70
2023/08/12 12:01:45;;;;;;;56.00;1.90;;;;;;;;;;5050492;28;20813;-70
2023/08/12 12:04:12;;;;;;;55.77;1.87;;;;;;;;;;5050684;28;20482;-70
2023/08/12 12:06:39;;;;;;;55.77;2.00;;;;;;;;;;5050774;28;20462;-69
2023/08/12 12:09:09;;;;;;;56.10;1.90;;;;;;;;;;5050773;28;20490;-69
2023/08/12 12:11:37;;;;;;;55.83;1.90;;;;;;;;;;5050404;28;20501;-69
2023/08/12 12:14:05;;;;;;;56.60;1.70;;;;;;;;;;5050542;28;20464;-68
2023/08/12 12:16:43;;;;;;;56.30;1.80;;;;;;;;;;5050477;28;20484;-68
2023/08/12 12:19:11;;;;;;;56.27;1.77;;;;;;;;;;5050709;28;20443;-68
2023/08/12 12:21:42;;;;;;;56.07;1.80;;;;;;;;;;5050353;28;20448;-68
2023/08/12 12:24:09;;;;;;;56.40;1.77;;;;;;;;;;5050324;28;20464;-68
2023/08/12 12:26:37;;;;;;;56.77;1.87;;;;;;;;;;5050347;28;20444;-68
2023/08/12 12:29:05;;;;;;;56.57;1.90;;;;;;;;;;5053902;28;20594;-68
2023/08/12 12:31:33;;;;;;;56.47;1.83;;;;;;;;;;5054158;28;20478;-68
2023/08/12 12:34:01;;;;;;;60.83;2.40;;;;;;;;;;5053958;28;20464;-69
2023/08/12 12:36:28;;;;;;;56.80;1.97;;;;;;;;;;5053999;28;20573;-68
2023/08/12 12:38:55;;;;;;;56.77;2.10;;;;;;;;;;5053739;28;20451;-69
2023/08/12 12:41:23;;;;;;;57.03;2.50;;;;;;;;;;5054204;28;20448;-68
2023/08/12 12:43:50;;;;;;;58.23;3.50;;;;;;;;;;5053380;28;20462;-69
2023/08/12 12:46:17;;;;;;;56.17;2.10;;;;;;;;;;5053831;28;20444;-68
2023/08/12 12:48:44;;;;;;;56.60;2.13;;;;;;;;;;5053573;28;21022;-68
2023/08/12 12:51:13;;;;;;;56.43;2.30;;;;;;;;;;5053729;28;20440;-68
2023/08/12 12:53:40;;;;;;;56.37;2.17;;;;;;;;;;5053189;28;20996;-69
2023/08/12 12:56:07;;;;;;;56.70;2.20;;;;;;;;;;5053380;28;20444;-68
2023/08/12 12:58:35;;;;;;;57.23;2.97;;;;;;;;;;5053513;28;20929;-69
2023/08/12 13:01:03;;;;;;;56.80;2.50;;;;;;;;;;5053594;28;20483;-68
2023/08/12 13:03:31;;;;;;;57.30;2.40;;;;;;;;;;5053197;28;20464;-68
2023/08/12 13:05:58;;;;;;;56.70;2.57;;;;;;;;;;5053364;28;20487;-68
2023/08/12 13:08:26;;;;;;;57.20;2.50;;;;;;;;;;5053075;28;20476;-68
2023/08/12 13:10:53;;;;;;;56.53;2.20;;;;;;;;;;5053570;28;20444;-68
2023/08/12 13:13:20;;;;;;;58.27;3.07;;;;;;;;;;5053147;28;20464;-69
2023/08/12 13:15:47;;;;;;;56.87;2.30;;;;;;;;;;5053248;28;20447;-68
2023/08/12 13:18:15;;;;;;;58.97;2.90;;;;;;;;;;5053169;28;20444;-69
2023/08/12 13:20:42;;;;;;;56.50;2.63;;;;;;;;;;5053186;28;20444;-68
2023/08/12 13:23:09;;;;;;;56.27;2.13;;;;;;;;;;5052637;28;20475;-68
2023/08/12 13:25:37;;;;;;;56.47;2.30;;;;;;;;;;5053181;28;20439;-68
2023/08/12 13:28:05;;;;;;;56.77;2.30;;;;;;;;;;5053118;28;20445;-68
2023/08/12 13:30:32;;;;;;;56.90;2.70;;;;;;;;;;5052998;28;20444;-68
2023/08/12 13:32:59;;;;;;;56.90;2.70;;;;;;;;;;5052602;28;20468;-68
2023/08/12 13:35:26;;;;;;;56.67;2.50;;;;;;;;;;5052759;28;20440;-68
2023/08/12 13:37:53;;;;;;;56.87;2.57;;;;;;;;;;5052789;28;20460;-69
2023/08/12 13:40:20;;;;;;;57.30;2.70;;;;;;;;;;5052211;28;20432;-68
2023/08/12 13:42:50;;;;;;;57.00;2.50;;;;;;;;;;5052513;28;20441;-68
2023/08/12 13:45:17;;;;;;;56.80;2.67;;;;;;;;;;5052645;28;20448;-70
2023/08/12 13:47:44;;;;;;;56.43;2.50;;;;;;;;;;5052660;28;20440;-68
2023/08/12 13:50:11;;;;;;;56.80;2.50;;;;;;;;;;5052390;28;20487;-68
2023/08/12 13:52:38;;;;;;;57.53;2.90;;;;;;;;;;5052330;28;20445;-68
2023/08/12 13:55:06;;;;;;;55.87;2.60;;;;;;;;;;5052614;28;20535;-68
2023/08/12 13:57:33;;;;;;;56.97;2.90;;;;;;;;;;5052473;28;20460;-68
2023/08/12 14:00:01;;;;;;;56.80;2.60;;;;;;;;;;5052395;28;20451;-69
2023/08/12 14:02:28;;;;;;;61.93;3.20;;;;;;;;;;5052015;28;21071;-68
2023/08/12 14:04:55;;;;;;;56.27;2.17;;;;;;;;;;5052468;28;20799;-69
2023/08/12 14:07:23;;;;;;;56.40;2.40;;;;;;;;;;5052497;28;20441;-69
2023/08/12 14:09:50;;;;;;;55.93;1.70;;;;;;;;;;5052511;28;20491;-69
2023/08/12 14:12:17;;;;;;;56.10;1.93;;;;;;;;;;5052017;28;20452;-69
2023/08/12 14:14:45;;;;;;;56.20;2.40;;;;;;;;;;5052094;28;20812;-69
2023/08/12 14:17:16;;;;;;;55.37;1.70;;;;;;;;;;5051885;28;20455;-70
2023/08/12 14:19:43;;;;;;;55.93;2.33;;;;;;;;;;5051955;28;20498;-70
2023/08/12 14:22:10;;;;;;;55.90;2.30;;;;;;;;;;5051945;28;20440;-69
2023/08/12 14:24:37;;;;;;;56.67;2.40;;;;;;;;;;5051780;28;20992;-70
2023/08/12 14:27:04;;;;;;;56.00;2.33;;;;;;;;;;5051768;28;20980;-70
2023/08/12 14:29:31;;;;;;;55.53;1.90;;;;;;;;;;5051757;28;20487;-69
2023/08/12 14:31:59;;;;;;;55.30;1.80;;;;;;;;;;5051343;28;20445;-70
2023/08/12 14:34:27;;;;;;;55.60;2.27;;;;;;;;;;5051637;28;20992;-70